sensor_id;sensor_type;location;lat;lon;timestamp;pressure;altitude;pressure_sealevel;temperature;humidity
33163;BME280;29282;45.656;11.302;2023-06-22T00:01:09;98779.69;;;24.48;57.21
33163;BME280;29282;45.656;11.302;2023-06-22T00:03:34;98774.50;;;24.47;57.32
33163;BME280;29282;45.656;11.302;2023-06-22T00:06:00;98778.91;;;24.48;57.40
33163;BME280;29282;45.656;11.302;2023-06-22T00:08:25;98773.34;;;24.48;57.30
33163;BME280;29282;45.656;11.302;2023-06-22T00:10:51;98773.34;;;24.48;57.27
33163;BME280;29282;45.656;11.302;2023-06-22T00:13:16;98776.13;;;24.48;57.21
33163;BME280;29282;45.656;11.302;2023-06-22T00:15:43;98773.34;;;24.48;57.20
33163;BME280;29282;45.656;11.302;2023-06-22T00:18:10;98773.34;;;24.48;57.32
33163;BME280;29282;45.656;11.302;2023-06-22T00:20:36;98769.78;;;24.47;57.26
33163;BME280;29282;45.656;11.302;2023-06-22T00:23:03;98771.38;;;24.48;57.26
33163;BME280;29282;45.656;11.302;2023-06-22T00:25:36;98769.41;;;24.49;57.54
33163;BME280;29282;45.656;11.302;2023-06-22T00:28:03;98768.63;;;24.48;57.46
33163;BME280;29282;45.656;11.302;2023-06-22T00:30:30;98764.25;;;24.47;57.36
33163;BME280;29282;45.656;11.302;2023-06-22T00:32:55;98765.03;;;24.48;57.47
33163;BME280;29282;45.656;11.302;2023-06-22T00:35:21;98760.66;;;24.47;57.21
33163;BME280;29282;45.656;11.302;2023-06-22T00:37:46;98759.50;;;24.48;57.20
33163;BME280;29282;45.656;11.302;2023-06-22T00:40:12;98759.50;;;24.48;57.43
33163;BME280;29282;45.656;11.302;2023-06-22T00:42:40;98755.09;;;24.47;57.63
33163;BME280;29282;45.656;11.302;2023-06-22T00:45:06;98751.19;;;24.48;57.45
33163;BME280;29282;45.656;11.302;2023-06-22T00:47:34;98743.69;;;24.48;57.36
33163;BME280;29282;45.656;11.302;2023-06-22T00:49:59;98735.72;;;24.47;57.38
33163;BME280;29282;45.656;11.302;2023-06-22T00:52:26;98737.34;;;24.48;57.49
33163;BME280;29282;45.656;11.302;2023-06-22T00:54:58;98746.81;;;24.47;57.53
33163;BME280;29282;45.656;11.302;2023-06-22T00:57:27;98736.56;;;24.47;57.50
33163;BME280;29282;45.656;11.302;2023-06-22T00:59:54;98736.19;;;24.49;57.42
33163;BME280;29282;45.656;11.302;2023-06-22T01:02:19;98734.56;;;24.48;57.23
33163;BME280;29282;45.656;11.302;2023-06-22T01:04:45;98737.34;;;24.48;57.33
33163;BME280;29282;45.656;11.302;2023-06-22T01:10:10;98731.00;;;24.47;57.30
33163;BME280;29282;45.656;11.302;2023-06-22T01:12:45;98725.47;;;24.47;57.43
33163;BME280;29282;45.656;11.302;2023-06-22T01:15:23;98725.47;;;24.47;57.43
33163;BME280;29282;45.656;11.302;2023-06-22T01:17:52;98727.06;;;24.48;57.52
33163;BME280;29282;45.656;11.302;2023-06-22T01:20:19;98731.81;;;24.48;57.37
33163;BME280;29282;45.656;11.302;2023-06-22T01:23:11;98726.28;;;24.48;57.89
33163;BME280;29282;45.656;11.302;2023-06-22T01:25:47;98722.69;;;24.47;57.51
33163;BME280;29282;45.656;11.302;2023-06-22T01:28:49;98730.63;;;24.49;57.78
33163;BME280;29282;45.656;11.302;2023-06-22T01:31:24;98715.19;;;24.48;57.54
33163;BME280;29282;45.656;11.302;2023-06-22T01:33:53;98720.72;;;24.48;57.78
33163;BME280;29282;45.656;11.302;2023-06-22T01:36:21;98722.69;;;24.47;57.73
33163;BME280;29282;45.656;11.302;2023-06-22T01:38:48;98731.81;;;24.48;57.59
33163;BME280;29282;45.656;11.302;2023-06-22T01:41:15;98729.84;;;24.48;57.77
33163;BME280;29282;45.656;11.302;2023-06-22T01:43:48;98729.84;;;24.48;57.48
33163;BME280;29282;45.656;11.302;2023-06-22T01:46:14;98721.53;;;24.48;57.64
33163;BME280;29282;45.656;11.302;2023-06-22T01:48:40;98723.50;;;24.48;57.60
33163;BME280;29282;45.656;11.302;2023-06-22T01:51:06;98719.56;;;24.49;57.67
33163;BME280;29282;45.656;11.302;2023-06-22T01:53:32;98720.72;;;24.48;57.68
33163;BME280;29282;45.656;11.302;2023-06-22T01:55:57;98724.28;;;24.48;57.70
33163;BME280;29282;45.656;11.302;2023-06-22T01:58:26;98735.38;;;24.48;57.80
33163;BME280;29282;45.656;11.302;2023-06-22T02:01:09;98732.59;;;24.48;57.62
33163;BME280;29282;45.656;11.302;2023-06-22T02:03:46;98727.06;;;24.48;57.72
33163;BME280;29282;45.656;11.302;2023-06-22T02:06:23;98735.38;;;24.48;57.72
33163;BME280;29282;45.656;11.302;2023-06-22T02:08:55;98736.97;;;24.49;57.69
33163;BME280;29282;45.656;11.302;2023-06-22T02:11:21;98736.19;;;24.49;57.76
33163;BME280;29282;45.656;11.302;2023-06-22T02:13:48;98737.34;;;24.48;57.77
33163;BME280;29282;45.656;11.302;2023-06-22T02:16:15;98737.34;;;24.48;57.76
33163;BME280;29282;45.656;11.302;2023-06-22T02:18:50;98741.72;;;24.49;57.73
33163;BME280;29282;45.656;11.302;2023-06-22T02:21:21;98742.09;;;24.47;57.86
33163;BME280;29282;45.656;11.302;2023-06-22T02:23:47;98744.47;;;24.49;57.78
33163;BME280;29282;45.656;11.302;2023-06-22T02:26:13;98737.34;;;24.48;57.92
33163;BME280;29282;45.656;11.302;2023-06-22T02:28:41;98737.34;;;24.48;57.81
33163;BME280;29282;45.656;11.302;2023-06-22T02:31:10;98738.94;;;24.49;57.76
33163;BME280;29282;45.656;11.302;2023-06-22T02:33:36;98732.59;;;24.48;57.82
33163;BME280;29282;45.656;11.302;2023-06-22T02:36:01;98731.81;;;24.48;57.83
33163;BME280;29282;45.656;11.302;2023-06-22T02:38:31;98734.56;;;24.48;57.88
33163;BME280;29282;45.656;11.302;2023-06-22T02:41:00;98729.84;;;24.48;57.68
33163;BME280;29282;45.656;11.302;2023-06-22T02:43:25;98732.59;;;24.48;58.08
33163;BME280;29282;45.656;11.302;2023-06-22T02:45:51;98729.03;;;24.48;58.00
33163;BME280;29282;45.656;11.302;2023-06-22T02:48:16;98740.91;;;24.48;58.09
33163;BME280;29282;45.656;11.302;2023-06-22T02:50:42;98726.28;;;24.48;57.87
33163;BME280;29282;45.656;11.302;2023-06-22T02:53:08;98731.81;;;24.48;57.95
33163;BME280;29282;45.656;11.302;2023-06-22T02:55:33;98733.78;;;24.47;57.87
33163;BME280;29282;45.656;11.302;2023-06-22T02:57:58;98729.03;;;24.48;57.99
33163;BME280;29282;45.656;11.302;2023-06-22T03:00:28;98726.28;;;24.48;57.78
33163;BME280;29282;45.656;11.302;2023-06-22T03:02:56;98728.25;;;24.47;58.08
33163;BME280;29282;45.656;11.302;2023-06-22T03:05:22;98731.00;;;24.47;58.12
33163;BME280;29282;45.656;11.302;2023-06-22T03:07:48;98725.09;;;24.49;57.87
33163;BME280;29282;45.656;11.302;2023-06-22T03:10:14;98738.16;;;24.48;58.08
33163;BME280;29282;45.656;11.302;2023-06-22T03:12:41;98740.91;;;24.48;57.99
33163;BME280;29282;45.656;11.302;2023-06-22T03:15:11;98742.09;;;24.47;57.93
33163;BME280;29282;45.656;11.302;2023-06-22T03:17:37;98737.34;;;24.48;58.17
33163;BME280;29282;45.656;11.302;2023-06-22T03:20:07;98740.13;;;24.48;58.15
33163;BME280;29282;45.656;11.302;2023-06-22T03:22:40;98733.78;;;24.47;58.08
33163;BME280;29282;45.656;11.302;2023-06-22T03:25:09;98735.72;;;24.47;58.06
33163;BME280;29282;45.656;11.302;2023-06-22T03:27:41;98737.34;;;24.48;58.16
33163;BME280;29282;45.656;11.302;2023-06-22T03:30:09;98732.94;;;24.47;58.18
33163;BME280;29282;45.656;11.302;2023-06-22T03:32:35;98737.34;;;24.48;58.12
33163;BME280;29282;45.656;11.302;2023-06-22T03:35:00;98738.16;;;24.48;58.10
33163;BME280;29282;45.656;11.302;2023-06-22T03:37:27;98737.34;;;24.48;58.26
33163;BME280;29282;45.656;11.302;2023-06-22T03:39:53;98736.19;;;24.49;58.30
33163;BME280;29282;45.656;11.302;2023-06-22T03:42:21;98744.88;;;24.47;58.29
33163;BME280;29282;45.656;11.302;2023-06-22T03:44:47;98742.88;;;24.48;58.13
33163;BME280;29282;45.656;11.302;2023-06-22T03:47:16;98741.72;;;24.49;57.93
33163;BME280;29282;45.656;11.302;2023-06-22T03:49:42;98734.56;;;24.48;58.21
33163;BME280;29282;45.656;11.302;2023-06-22T03:52:10;98734.56;;;24.48;58.09
33163;BME280;29282;45.656;11.302;2023-06-22T03:54:36;98727.88;;;24.49;57.99
33163;BME280;29282;45.656;11.302;2023-06-22T03:57:01;98716.78;;;24.49;58.08
33163;BME280;29282;45.656;11.302;2023-06-22T03:59:27;98722.31;;;24.49;58.06
33163;BME280;29282;45.656;11.302;2023-06-22T04:01:52;98718.75;;;24.48;58.33
33163;BME280;29282;45.656;11.302;2023-06-22T04:04:18;98720.72;;;24.48;57.98
33163;BME280;29282;45.656;11.302;2023-06-22T04:06:44;98720.72;;;24.48;58.15
33163;BME280;29282;45.656;11.302;2023-06-22T04:09:10;98720.72;;;24.48;58.04
33163;BME280;29282;45.656;11.302;2023-06-22T04:11:35;98733.41;;;24.49;58.19
33163;BME280;29282;45.656;11.302;2023-06-22T04:14:03;98724.28;;;24.48;58.14
33163;BME280;29282;45.656;11.302;2023-06-22T04:16:29;98727.06;;;24.48;58.44
33163;BME280;29282;45.656;11.302;2023-06-22T04:18:54;98731.44;;;24.49;57.94
33163;BME280;29282;45.656;11.302;2023-06-22T04:21:20;98727.50;;;24.50;58.17
33163;BME280;29282;45.656;11.302;2023-06-22T04:23:46;98724.75;;;24.50;58.08
33163;BME280;29282;45.656;11.302;2023-06-22T04:26:13;98714.00;;;24.49;58.06
33163;BME280;29282;45.656;11.302;2023-06-22T04:28:40;98716.44;;;24.50;58.18
33163;BME280;29282;45.656;11.302;2023-06-22T04:31:05;98712.03;;;24.49;57.98
33163;BME280;29282;45.656;11.302;2023-06-22T04:33:31;98708.47;;;24.49;58.04
33163;BME280;29282;45.656;11.302;2023-06-22T04:35:58;98712.84;;;24.50;58.34
33163;BME280;29282;45.656;11.302;2023-06-22T04:38:24;98710.91;;;24.50;58.18
33163;BME280;29282;45.656;11.302;2023-06-22T04:40:50;98711.69;;;24.51;58.18
33163;BME280;29282;45.656;11.302;2023-06-22T04:43:16;98723.56;;;24.51;58.08
33163;BME280;29282;45.656;11.302;2023-06-22T04:45:42;98723.56;;;24.51;58.02
33163;BME280;29282;45.656;11.302;2023-06-22T04:48:10;98717.22;;;24.51;58.25
33163;BME280;29282;45.656;11.302;2023-06-22T04:50:41;98697.47;;;24.52;58.04
33163;BME280;29282;45.656;11.302;2023-06-22T04:53:06;98700.22;;;24.52;58.12
33163;BME280;29282;45.656;11.302;2023-06-22T04:55:32;98698.25;;;24.53;58.11
33163;BME280;29282;45.656;11.302;2023-06-22T04:57:58;98700.22;;;24.52;58.07
33163;BME280;29282;45.656;11.302;2023-06-22T05:00:30;98710.97;;;24.54;58.12
33163;BME280;29282;45.656;11.302;2023-06-22T05:02:56;98717.31;;;24.54;58.16
33163;BME280;29282;45.656;11.302;2023-06-22T05:05:23;98711.75;;;24.54;58.08
33163;BME280;29282;45.656;11.302;2023-06-22T05:07:50;98711.75;;;24.54;58.07
33163;BME280;29282;45.656;11.302;2023-06-22T05:10:18;98725.59;;;24.54;58.08
33163;BME280;29282;45.656;11.302;2023-06-22T05:12:45;98722.84;;;24.54;58.22
33163;BME280;29282;45.656;11.302;2023-06-22T05:15:11;98710.97;;;24.54;58.21
33163;BME280;29282;45.656;11.302;2023-06-22T05:17:37;98709.78;;;24.55;58.19
33163;BME280;29282;45.656;11.302;2023-06-22T05:20:09;98713.72;;;24.54;58.13
33163;BME280;29282;45.656;11.302;2023-06-22T05:22:35;98701.81;;;24.53;58.25
33163;BME280;29282;45.656;11.302;2023-06-22T05:25:00;98712.09;;;24.53;58.13
33163;BME280;29282;45.656;11.302;2023-06-22T05:27:26;98709.00;;;24.54;58.21
33163;BME280;29282;45.656;11.302;2023-06-22T05:29:51;98717.66;;;24.53;58.01
33163;BME280;29282;45.656;11.302;2023-06-22T05:32:20;98716.50;;;24.54;58.32
33163;BME280;29282;45.656;11.302;2023-06-22T05:34:46;98719.28;;;24.54;58.47
33163;BME280;29282;45.656;11.302;2023-06-22T05:37:11;98725.97;;;24.53;58.42
33163;BME280;29282;45.656;11.302;2023-06-22T05:39:38;98713.72;;;24.54;58.18
33163;BME280;29282;45.656;11.302;2023-06-22T05:42:05;98724.44;;;24.55;58.44
33163;BME280;29282;45.656;11.302;2023-06-22T05:44:31;98714.16;;;24.56;58.16
33163;BME280;29282;45.656;11.302;2023-06-22T05:46:57;98705.50;;;24.57;58.27
33163;BME280;29282;45.656;11.302;2023-06-22T05:49:23;98708.25;;;24.57;58.21
33163;BME280;29282;45.656;11.302;2023-06-22T05:51:49;98719.34;;;24.57;58.27
33163;BME280;29282;45.656;11.302;2023-06-22T05:54:15;98722.91;;;24.58;58.15
33163;BME280;29282;45.656;11.302;2023-06-22T05:56:43;98720.94;;;24.58;58.15
33163;BME280;29282;45.656;11.302;2023-06-22T05:59:08;98710.66;;;24.59;58.09
33163;BME280;29282;45.656;11.302;2023-06-22T06:01:34;98708.69;;;24.59;58.14
33163;BME280;29282;45.656;11.302;2023-06-22T06:04:02;98712.63;;;24.58;58.16
33163;BME280;29282;45.656;11.302;2023-06-22T06:06:29;98717.38;;;24.58;58.20
33163;BME280;29282;45.656;11.302;2023-06-22T06:08:55;98714.59;;;24.58;58.19
33163;BME280;29282;45.656;11.302;2023-06-22T06:11:21;98726.09;;;24.60;58.08
33163;BME280;29282;45.656;11.302;2023-06-22T06:13:46;98720.56;;;24.60;58.20
33163;BME280;29282;45.656;11.302;2023-06-22T06:16:12;98713.41;;;24.59;58.08
33163;BME280;29282;45.656;11.302;2023-06-22T06:18:38;98707.88;;;24.59;58.02
33163;BME280;29282;45.656;11.302;2023-06-22T06:21:03;98705.56;;;24.61;57.93
33163;BME280;29282;45.656;11.302;2023-06-22T06:23:29;98708.31;;;24.61;58.20
33163;BME280;29282;45.656;11.302;2023-06-22T06:25:54;98711.09;;;24.61;58.18
33163;BME280;29282;45.656;11.302;2023-06-22T06:28:20;98703.94;;;24.60;58.31
33163;BME280;29282;45.656;11.302;2023-06-22T06:30:45;98709.47;;;24.60;58.35
33163;BME280;29282;45.656;11.302;2023-06-22T06:33:12;98702.34;;;24.59;58.15
33163;BME280;29282;45.656;11.302;2023-06-22T06:35:38;98702.00;;;24.60;58.33
33163;BME280;29282;45.656;11.302;2023-06-22T06:38:04;98701.59;;;24.62;58.54
33163;BME280;29282;45.656;11.302;2023-06-22T06:40:30;98704.03;;;24.64;58.21
33163;BME280;29282;45.656;11.302;2023-06-22T06:42:55;98697.66;;;24.63;58.16
33163;BME280;29282;45.656;11.302;2023-06-22T06:45:22;98698.84;;;24.62;58.14
33163;BME280;29282;45.656;11.302;2023-06-22T06:47:52;98700.44;;;24.63;58.17
33163;BME280;29282;45.656;11.302;2023-06-22T06:50:18;98703.19;;;24.63;58.21
33163;BME280;29282;45.656;11.302;2023-06-22T06:52:44;98704.81;;;24.64;58.17
33163;BME280;29282;45.656;11.302;2023-06-22T06:55:10;98696.06;;;24.62;58.05
33163;BME280;29282;45.656;11.302;2023-06-22T06:57:38;98696.88;;;24.63;58.22
33163;BME280;29282;45.656;11.302;2023-06-22T07:00:05;98694.09;;;24.63;58.18
33163;BME280;29282;45.656;11.302;2023-06-22T07:02:39;98703.19;;;24.63;58.19
33163;BME280;29282;45.656;11.302;2023-06-22T07:05:06;98691.72;;;24.61;58.18
33163;BME280;29282;45.656;11.302;2023-06-22T07:07:32;98692.50;;;24.61;58.39
33163;BME280;29282;45.656;11.302;2023-06-22T07:09:58;98684.19;;;24.61;58.38
33163;BME280;29282;45.656;11.302;2023-06-22T07:12:24;98695.63;;;24.60;58.57
33163;BME280;29282;45.656;11.302;2023-06-22T07:14:49;98686.97;;;24.61;58.46
33163;BME280;29282;45.656;11.302;2023-06-22T07:17:16;98688.13;;;24.60;58.55
33163;BME280;29282;45.656;11.302;2023-06-22T07:19:41;98677.84;;;24.61;58.55
33163;BME280;29282;45.656;11.302;2023-06-22T07:22:07;98681.41;;;24.61;58.28
33163;BME280;29282;45.656;11.302;2023-06-22T07:24:33;98679.81;;;24.60;58.51
33163;BME280;29282;45.656;11.302;2023-06-22T07:26:59;98681.41;;;24.61;58.23
33163;BME280;29282;45.656;11.302;2023-06-22T07:29:25;98676.69;;;24.62;58.57
33163;BME280;29282;45.656;11.302;2023-06-22T07:31:52;98680.63;;;24.61;58.35
33163;BME280;29282;45.656;11.302;2023-06-22T07:34:20;98681.41;;;24.61;58.49
33163;BME280;29282;45.656;11.302;2023-06-22T07:36:46;98677.47;;;24.63;58.33
33163;BME280;29282;45.656;11.302;2023-06-22T07:39:12;98664.78;;;24.61;58.30
33163;BME280;29282;45.656;11.302;2023-06-22T07:41:39;98665.59;;;24.62;58.44
33163;BME280;29282;45.656;11.302;2023-06-22T07:44:06;98647.00;;;24.63;58.43
33163;BME280;29282;45.656;11.302;2023-06-22T07:46:32;98649.78;;;24.63;58.24
33163;BME280;29282;45.656;11.302;2023-06-22T07:48:57;98647.78;;;24.63;58.40
33163;BME280;29282;45.656;11.302;2023-06-22T07:51:23;98664.41;;;24.63;58.41
33163;BME280;29282;45.656;11.302;2023-06-22T07:53:49;98656.94;;;24.64;58.41
33163;BME280;29282;45.656;11.302;2023-06-22T07:56:14;98671.59;;;24.64;58.41
33163;BME280;29282;45.656;11.302;2023-06-22T07:58:47;98668.81;;;24.64;58.66
33163;BME280;29282;45.656;11.302;2023-06-22T08:01:16;98667.63;;;24.65;58.84
33163;BME280;29282;45.656;11.302;2023-06-22T08:03:42;98664.47;;;24.67;58.78
33163;BME280;29282;45.656;11.302;2023-06-22T08:06:09;98665.31;;;24.67;58.66
33163;BME280;29282;45.656;11.302;2023-06-22T08:08:35;98655.44;;;24.70;58.63
33163;BME280;29282;45.656;11.302;2023-06-22T08:11:01;98673.31;;;24.72;58.58
33163;BME280;29282;45.656;11.302;2023-06-22T08:13:27;98665.78;;;24.73;58.51
33163;BME280;29282;45.656;11.302;2023-06-22T08:15:52;98666.59;;;24.73;58.56
33163;BME280;29282;45.656;11.302;2023-06-22T08:18:18;98665.44;;;24.74;58.62
33163;BME280;29282;45.656;11.302;2023-06-22T08:20:43;98665.44;;;24.74;58.73
33163;BME280;29282;45.656;11.302;2023-06-22T08:23:09;98673.75;;;24.74;58.68
33163;BME280;29282;45.656;11.302;2023-06-22T08:25:35;98668.63;;;24.76;58.53
33163;BME280;29282;45.656;11.302;2023-06-22T08:28:04;98665.84;;;24.76;59.01
33163;BME280;29282;45.656;11.302;2023-06-22T08:30:30;98663.53;;;24.78;58.84
33163;BME280;29282;45.656;11.302;2023-06-22T08:32:56;98666.28;;;24.78;58.79
33163;BME280;29282;45.656;11.302;2023-06-22T08:35:22;98661.56;;;24.79;58.78
33163;BME280;29282;45.656;11.302;2023-06-22T08:37:48;98664.31;;;24.79;58.89
33163;BME280;29282;45.656;11.302;2023-06-22T08:40:18;98663.97;;;24.80;58.82
33163;BME280;29282;45.656;11.302;2023-06-22T08:42:48;98669.50;;;24.80;58.60
33163;BME280;29282;45.656;11.302;2023-06-22T08:45:14;98660.81;;;24.82;58.90
33163;BME280;29282;45.656;11.302;2023-06-22T08:47:40;98663.59;;;24.82;58.78
33163;BME280;29282;45.656;11.302;2023-06-22T08:50:07;98661.63;;;24.82;58.97
33163;BME280;29282;45.656;11.302;2023-06-22T08:52:34;98667.94;;;24.83;58.98
33163;BME280;29282;45.656;11.302;2023-06-22T08:55:00;98659.63;;;24.83;58.91
33163;BME280;29282;45.656;11.302;2023-06-22T08:57:29;98660.47;;;24.83;58.78
33163;BME280;29282;45.656;11.302;2023-06-22T08:59:55;98665.63;;;24.85;58.95
33163;BME280;29282;45.656;11.302;2023-06-22T09:02:24;98657.31;;;24.85;58.99
33163;BME280;29282;45.656;11.302;2023-06-22T09:04:50;98657.69;;;24.83;58.93
33163;BME280;29282;45.656;11.302;2023-06-22T09:07:23;98662.84;;;24.85;58.86
33163;BME280;29282;45.656;11.302;2023-06-22T09:09:50;98660.09;;;24.85;58.87
33163;BME280;29282;45.656;11.302;2023-06-22T09:12:17;98666.41;;;24.85;58.96
33163;BME280;29282;45.656;11.302;2023-06-22T09:14:45;98655.34;;;24.85;58.88
33163;BME280;29282;45.656;11.302;2023-06-22T09:17:12;98658.09;;;24.85;58.69
33163;BME280;29282;45.656;11.302;2023-06-22T09:19:38;98662.84;;;24.85;58.79
33163;BME280;29282;45.656;11.302;2023-06-22T09:22:04;98664.81;;;24.84;59.00
33163;BME280;29282;45.656;11.302;2023-06-22T09:24:32;98659.63;;;24.83;59.09
33163;BME280;29282;45.656;11.302;2023-06-22T09:26:58;98644.19;;;24.82;58.96
33163;BME280;29282;45.656;11.302;2023-06-22T09:29:24;98650.13;;;24.80;59.02
33163;BME280;29282;45.656;11.302;2023-06-22T09:31:49;98652.88;;;24.80;59.22
33163;BME280;29282;45.656;11.302;2023-06-22T09:34:15;98654.47;;;24.81;59.09
33163;BME280;29282;45.656;11.302;2023-06-22T09:36:45;98655.66;;;24.80;58.82
33163;BME280;29282;45.656;11.302;2023-06-22T09:39:10;98658.44;;;24.80;59.08
33163;BME280;29282;45.656;11.302;2023-06-22T09:41:36;98655.66;;;24.80;58.90
33163;BME280;29282;45.656;11.302;2023-06-22T09:44:01;98649.28;;;24.80;58.86
33163;BME280;29282;45.656;11.302;2023-06-22T09:46:27;98640.97;;;24.80;58.98
33163;BME280;29282;45.656;11.302;2023-06-22T09:48:53;98650.13;;;24.80;58.91
33163;BME280;29282;45.656;11.302;2023-06-22T09:51:19;98648.50;;;24.79;59.08
33163;BME280;29282;45.656;11.302;2023-06-22T09:53:46;98645.72;;;24.79;59.06
33163;BME280;29282;45.656;11.302;2023-06-22T09:56:12;98633.84;;;24.79;58.88
33163;BME280;29282;45.656;11.302;2023-06-22T09:58:41;98640.19;;;24.79;58.91
33163;BME280;29282;45.656;11.302;2023-06-22T10:01:07;98640.97;;;24.80;58.86
33163;BME280;29282;45.656;11.302;2023-06-22T10:03:33;98643.38;;;24.81;58.83
33163;BME280;29282;45.656;11.302;2023-06-22T10:05:58;98642.59;;;24.81;58.89
33163;BME280;29282;45.656;11.302;2023-06-22T10:08:24;98643.38;;;24.81;59.07
33163;BME280;29282;45.656;11.302;2023-06-22T10:10:49;98637.06;;;24.81;58.98
33163;BME280;29282;45.656;11.302;2023-06-22T10:13:15;98643.38;;;24.81;58.88
33163;BME280;29282;45.656;11.302;2023-06-22T10:15:41;98647.34;;;24.80;58.66
33163;BME280;29282;45.656;11.302;2023-06-22T10:18:07;98643.38;;;24.81;58.99
33163;BME280;29282;45.656;11.302;2023-06-22T10:20:32;98649.72;;;24.82;58.85
33163;BME280;29282;45.656;11.302;2023-06-22T10:23:01;98654.47;;;24.81;59.03
33163;BME280;29282;45.656;11.302;2023-06-22T10:25:26;98639.03;;;24.80;59.18
33163;BME280;29282;45.656;11.302;2023-06-22T10:27:52;98648.13;;;24.81;58.92
33163;BME280;29282;45.656;11.302;2023-06-22T10:30:18;98649.72;;;24.82;59.09
33163;BME280;29282;45.656;11.302;2023-06-22T10:32:44;98644.56;;;24.80;59.08
33163;BME280;29282;45.656;11.302;2023-06-22T10:35:09;98637.06;;;24.81;59.11
33163;BME280;29282;45.656;11.302;2023-06-22T10:37:44;98639.03;;;24.80;59.09
33163;BME280;29282;45.656;11.302;2023-06-22T10:40:13;98625.16;;;24.80;59.07
33163;BME280;29282;45.656;11.302;2023-06-22T10:42:39;98625.97;;;24.81;59.18
33163;BME280;29282;45.656;11.302;2023-06-22T10:45:08;98619.63;;;24.80;59.12
33163;BME280;29282;45.656;11.302;2023-06-22T10:47:34;98614.09;;;24.80;59.07
33163;BME280;29282;45.656;11.302;2023-06-22T10:50:00;98616.84;;;24.80;59.13
33163;BME280;29282;45.656;11.302;2023-06-22T10:52:26;98606.56;;;24.81;59.13
33163;BME280;29282;45.656;11.302;2023-06-22T10:54:51;98610.13;;;24.81;59.22
33163;BME280;29282;45.656;11.302;2023-06-22T10:57:18;98608.53;;;24.80;59.41
33163;BME280;29282;45.656;11.302;2023-06-22T10:59:43;98621.22;;;24.81;59.08
33163;BME280;29282;45.656;11.302;2023-06-22T11:02:09;98614.88;;;24.81;59.21
33163;BME280;29282;45.656;11.302;2023-06-22T11:04:38;98609.34;;;24.81;59.13
33163;BME280;29282;45.656;11.302;2023-06-22T11:07:03;98606.56;;;24.81;59.11
33163;BME280;29282;45.656;11.302;2023-06-22T11:09:29;98610.94;;;24.82;59.12
33163;BME280;29282;45.656;11.302;2023-06-22T11:11:55;98610.94;;;24.82;59.13
33163;BME280;29282;45.656;11.302;2023-06-22T11:14:21;98614.88;;;24.81;59.21
33163;BME280;29282;45.656;11.302;2023-06-22T11:16:47;98622.03;;;24.82;59.35
33163;BME280;29282;45.656;11.302;2023-06-22T11:19:13;98610.13;;;24.81;59.20
33163;BME280;29282;45.656;11.302;2023-06-22T11:21:39;98606.56;;;24.81;59.21
33163;BME280;29282;45.656;11.302;2023-06-22T11:24:07;98601.81;;;24.81;59.18
33163;BME280;29282;45.656;11.302;2023-06-22T11:26:33;98604.59;;;24.81;59.28
33163;BME280;29282;45.656;11.302;2023-06-22T11:28:59;98606.19;;;24.82;59.32
33163;BME280;29282;45.656;11.302;2023-06-22T11:31:24;98599.50;;;24.83;59.18
33163;BME280;29282;45.656;11.302;2023-06-22T11:33:50;98603.81;;;24.81;59.36
33163;BME280;29282;45.656;11.302;2023-06-22T11:36:16;98600.66;;;24.82;59.29
33163;BME280;29282;45.656;11.302;2023-06-22T11:38:42;98592.34;;;24.82;59.18
33163;BME280;29282;45.656;11.302;2023-06-22T11:41:09;98588.75;;;24.82;59.27
33163;BME280;29282;45.656;11.302;2023-06-22T11:43:35;98584.00;;;24.82;59.00
33163;BME280;29282;45.656;11.302;2023-06-22T11:46:05;98579.28;;;24.83;59.23
33163;BME280;29282;45.656;11.302;2023-06-22T11:48:30;98584.00;;;24.82;59.33
33163;BME280;29282;45.656;11.302;2023-06-22T11:50:56;98584.00;;;24.82;59.32
33163;BME280;29282;45.656;11.302;2023-06-22T11:53:25;98582.88;;;24.83;59.17
33163;BME280;29282;45.656;11.302;2023-06-22T11:55:51;98579.28;;;24.83;59.12
33163;BME280;29282;45.656;11.302;2023-06-22T11:58:18;98572.94;;;24.82;59.42
33163;BME280;29282;45.656;11.302;2023-06-22T12:00:43;98565.41;;;24.83;59.25
33163;BME280;29282;45.656;11.302;2023-06-22T12:03:10;98561.84;;;24.82;59.26
33163;BME280;29282;45.656;11.302;2023-06-22T12:05:36;98559.88;;;24.83;59.11
33163;BME280;29282;45.656;11.302;2023-06-22T12:08:05;98557.09;;;24.83;59.25
33163;BME280;29282;45.656;11.302;2023-06-22T12:10:30;98566.25;;;24.83;59.11
33163;BME280;29282;45.656;11.302;2023-06-22T12:12:56;98564.25;;;24.84;59.22
33163;BME280;29282;45.656;11.302;2023-06-22T12:15:26;98560.69;;;24.83;59.17
33163;BME280;29282;45.656;11.302;2023-06-22T12:17:54;98563.47;;;24.83;59.21
33163;BME280;29282;45.656;11.302;2023-06-22T12:20:20;98545.66;;;24.84;59.14
33163;BME280;29282;45.656;11.302;2023-06-22T12:22:45;98544.06;;;24.83;58.93
33163;BME280;29282;45.656;11.302;2023-06-22T12:25:12;98542.09;;;24.84;59.22
33163;BME280;29282;45.656;11.302;2023-06-22T12:27:38;98539.31;;;24.84;59.20
33163;BME280;29282;45.656;11.302;2023-06-22T12:30:04;98545.66;;;24.84;59.41
33163;BME280;29282;45.656;11.302;2023-06-22T12:32:30;98535.38;;;24.85;59.25
33163;BME280;29282;45.656;11.302;2023-06-22T12:34:56;98540.91;;;24.85;59.24
33163;BME280;29282;45.656;11.302;2023-06-22T12:37:22;98540.13;;;24.84;59.27
33163;BME280;29282;45.656;11.302;2023-06-22T12:39:47;98533.78;;;24.84;59.37
33163;BME280;29282;45.656;11.302;2023-06-22T12:42:13;98535.75;;;24.83;59.40
33163;BME280;29282;45.656;11.302;2023-06-22T12:44:39;98529.38;;;24.83;59.27
33163;BME280;29282;45.656;11.302;2023-06-22T12:47:05;98532.16;;;24.83;59.14
33163;BME280;29282;45.656;11.302;2023-06-22T12:49:31;98537.34;;;24.84;59.26
33163;BME280;29282;45.656;11.302;2023-06-22T12:51:56;98527.06;;;24.85;59.27